sensor_id;sensor_type;location;lat;lon;timestamp;temperature;humidity
31819;DHT22;18384;48.860;9.188;2022-08-03T00:02:01;22.70;80.60
31819;DHT22;18384;48.860;9.188;2022-08-03T00:04:28;22.70;81.10
31819;DHT22;18384;48.860;9.188;2022-08-03T00:06:54;22.70;81.10
31819;DHT22;18384;48.860;9.188;2022-08-03T00:09:20;22.70;81.20
31819;DHT22;18384;48.860;9.188;2022-08-03T00:11:46;22.70;81.60
31819;DHT22;18384;48.860;9.188;2022-08-03T00:14:12;22.70;82.20
31819;DHT22;18384;48.860;9.188;2022-08-03T00:16:39;22.60;81.80
31819;DHT22;18384;48.860;9.188;2022-08-03T00:19:05;22.60;82.30
31819;DHT22;18384;48.860;9.188;2022-08-03T00:21:31;22.60;82.20
31819;DHT22;18384;48.860;9.188;2022-08-03T00:23:57;22.60;82.60
31819;DHT22;18384;48.860;9.188;2022-08-03T00:26:23;22.60;82.70
31819;DHT22;18384;48.860;9.188;2022-08-03T00:28:50;22.60;82.90
31819;DHT22;18384;48.860;9.188;2022-08-03T00:31:16;22.50;83.20
31819;DHT22;18384;48.860;9.188;2022-08-03T00:33:42;22.60;83.10
31819;DHT22;18384;48.860;9.188;2022-08-03T00:36:08;22.50;82.70
31819;DHT22;18384;48.860;9.188;2022-08-03T00:38:34;22.50;83.50
31819;DHT22;18384;48.860;9.188;2022-08-03T00:41:00;22.50;83.00
31819;DHT22;18384;48.860;9.188;2022-08-03T00:43:26;22.50;83.00
31819;DHT22;18384;48.860;9.188;2022-08-03T00:45:52;22.40;82.40
31819;DHT22;18384;48.860;9.188;2022-08-03T00:48:21;22.40;83.10
31819;DHT22;18384;48.860;9.188;2022-08-03T00:50:48;22.40;83.40
31819;DHT22;18384;48.860;9.188;2022-08-03T00:53:14;22.40;83.60
31819;DHT22;18384;48.860;9.188;2022-08-03T00:55:41;22.40;83.40
31819;DHT22;18384;48.860;9.188;2022-08-03T00:58:08;22.40;83.60
31819;DHT22;18384;48.860;9.188;2022-08-03T01:00:38;22.30;83.40
31819;DHT22;18384;48.860;9.188;2022-08-03T01:03:06;22.30;83.30
31819;DHT22;18384;48.860;9.188;2022-08-03T01:05:51;22.30;83.00
31819;DHT22;18384;48.860;9.188;2022-08-03T01:08:53;22.20;83.10
31819;DHT22;18384;48.860;9.188;2022-08-03T01:12:13;22.30;83.10
31819;DHT22;18384;48.860;9.188;2022-08-03T01:15:14;22.20;83.10
31819;DHT22;18384;48.860;9.188;2022-08-03T01:17:54;22.20;83.10
31819;DHT22;18384;48.860;9.188;2022-08-03T01:20:30;22.20;83.10
31819;DHT22;18384;48.860;9.188;2022-08-03T01:24:49;22.20;83.30
31819;DHT22;18384;48.860;9.188;2022-08-03T01:27:36;22.20;83.40
31819;DHT22;18384;48.860;9.188;2022-08-03T01:30:19;22.20;83.20
31819;DHT22;18384;48.860;9.188;2022-08-03T01:32:54;22.20;83.20
31819;DHT22;18384;48.860;9.188;2022-08-03T01:35:34;22.10;83.10
31819;DHT22;18384;48.860;9.188;2022-08-03T01:38:15;22.10;83.50
31819;DHT22;18384;48.860;9.188;2022-08-03T01:40:45;22.00;83.50
31819;DHT22;18384;48.860;9.188;2022-08-03T01:43:15;22.00;84.00
31819;DHT22;18384;48.860;9.188;2022-08-03T01:45:43;22.10;84.40
31819;DHT22;18384;48.860;9.188;2022-08-03T01:48:11;22.10;84.30
31819;DHT22;18384;48.860;9.188;2022-08-03T01:50:41;22.00;84.20
31819;DHT22;18384;48.860;9.188;2022-08-03T01:53:09;21.90;84.20
31819;DHT22;18384;48.860;9.188;2022-08-03T01:55:36;22.00;84.50
31819;DHT22;18384;48.860;9.188;2022-08-03T01:58:04;21.90;84.30
31819;DHT22;18384;48.860;9.188;2022-08-03T02:00:34;21.90;84.50
31819;DHT22;18384;48.860;9.188;2022-08-03T02:03:04;21.90;84.50
31819;DHT22;18384;48.860;9.188;2022-08-03T02:05:31;21.90;85.00
31819;DHT22;18384;48.860;9.188;2022-08-03T02:07:59;21.90;85.30
31819;DHT22;18384;48.860;9.188;2022-08-03T02:10:28;21.80;85.50
31819;DHT22;18384;48.860;9.188;2022-08-03T02:12:57;21.80;85.80
31819;DHT22;18384;48.860;9.188;2022-08-03T02:15:25;21.80;86.60
31819;DHT22;18384;48.860;9.188;2022-08-03T02:17:53;21.80;86.90
31819;DHT22;18384;48.860;9.188;2022-08-03T02:20:21;21.80;87.60
31819;DHT22;18384;48.860;9.188;2022-08-03T02:22:47;21.70;87.70
31819;DHT22;18384;48.860;9.188;2022-08-03T02:25:14;21.70;88.10
31819;DHT22;18384;48.860;9.188;2022-08-03T02:27:56;21.70;88.30
31819;DHT22;18384;48.860;9.188;2022-08-03T02:30:33;21.70;88.80
31819;DHT22;18384;48.860;9.188;2022-08-03T02:33:04;21.70;88.90
31819;DHT22;18384;48.860;9.188;2022-08-03T02:35:35;21.70;89.20
31819;DHT22;18384;48.860;9.188;2022-08-03T02:38:04;21.70;89.40
31819;DHT22;18384;48.860;9.188;2022-08-03T02:40:32;21.60;89.30
31819;DHT22;18384;48.860;9.188;2022-08-03T02:42:59;20.80;89.00
31819;DHT22;18384;48.860;9.188;2022-08-03T02:45:28;21.70;90.00
31819;DHT22;18384;48.860;9.188;2022-08-03T02:47:59;21.60;90.00
31819;DHT22;18384;48.860;9.188;2022-08-03T02:50:28;21.60;90.10
31819;DHT22;18384;48.860;9.188;2022-08-03T02:52:57;21.50;90.20
31819;DHT22;18384;48.860;9.188;2022-08-03T02:55:25;21.50;90.20
31819;DHT22;18384;48.860;9.188;2022-08-03T02:57:53;21.50;90.20
31819;DHT22;18384;48.860;9.188;2022-08-03T03:00:20;21.50;90.30
31819;DHT22;18384;48.860;9.188;2022-08-03T03:02:47;21.50;90.30
31819;DHT22;18384;48.860;9.188;2022-08-03T03:05:14;21.50;90.40
31819;DHT22;18384;48.860;9.188;2022-08-03T03:07:41;21.50;90.60
31819;DHT22;18384;48.860;9.188;2022-08-03T03:10:08;21.40;90.60
31819;DHT22;18384;48.860;9.188;2022-08-03T03:12:39;21.40;90.70
31819;DHT22;18384;48.860;9.188;2022-08-03T03:15:06;21.40;90.80
31819;DHT22;18384;48.860;9.188;2022-08-03T03:17:34;21.40;90.90
31819;DHT22;18384;48.860;9.188;2022-08-03T03:20:02;21.40;90.90
31819;DHT22;18384;48.860;9.188;2022-08-03T03:22:30;21.40;91.10
31819;DHT22;18384;48.860;9.188;2022-08-03T03:24:58;21.40;91.10
31819;DHT22;18384;48.860;9.188;2022-08-03T03:27:25;21.40;91.20
31819;DHT22;18384;48.860;9.188;2022-08-03T03:29:52;21.40;91.20
31819;DHT22;18384;48.860;9.188;2022-08-03T03:32:18;21.40;91.50
31819;DHT22;18384;48.860;9.188;2022-08-03T03:34:45;21.30;91.40
31819;DHT22;18384;48.860;9.188;2022-08-03T03:37:11;21.30;91.50
31819;DHT22;18384;48.860;9.188;2022-08-03T03:39:37;21.30;91.50
31819;DHT22;18384;48.860;9.188;2022-08-03T03:42:04;21.40;91.60
31819;DHT22;18384;48.860;9.188;2022-08-03T03:44:30;21.30;91.60
31819;DHT22;18384;48.860;9.188;2022-08-03T03:46:57;21.20;91.60
31819;DHT22;18384;48.860;9.188;2022-08-03T03:49:23;21.30;91.70
31819;DHT22;18384;48.860;9.188;2022-08-03T03:51:52;21.30;92.00
31819;DHT22;18384;48.860;9.188;2022-08-03T03:54:19;21.40;91.90
31819;DHT22;18384;48.860;9.188;2022-08-03T03:56:46;21.30;92.00
31819;DHT22;18384;48.860;9.188;2022-08-03T03:59:12;21.20;92.00
31819;DHT22;18384;48.860;9.188;2022-08-03T04:01:38;21.30;92.10
31819;DHT22;18384;48.860;9.188;2022-08-03T04:04:04;21.20;92.20
31819;DHT22;18384;48.860;9.188;2022-08-03T04:06:49;21.20;92.20
31819;DHT22;18384;48.860;9.188;2022-08-03T04:09:35;21.20;92.20
31819;DHT22;18384;48.860;9.188;2022-08-03T04:12:23;21.20;92.30
31819;DHT22;18384;48.860;9.188;2022-08-03T04:14:52;21.20;92.30
31819;DHT22;18384;48.860;9.188;2022-08-03T04:17:22;21.20;92.30
31819;DHT22;18384;48.860;9.188;2022-08-03T04:19:52;21.20;92.50
31819;DHT22;18384;48.860;9.188;2022-08-03T04:22:23;21.20;92.50
31819;DHT22;18384;48.860;9.188;2022-08-03T04:24:57;21.20;92.40
31819;DHT22;18384;48.860;9.188;2022-08-03T04:27:29;21.20;92.40
31819;DHT22;18384;48.860;9.188;2022-08-03T04:29:59;21.20;92.40
31819;DHT22;18384;48.860;9.188;2022-08-03T04:32:28;21.20;92.50
31819;DHT22;18384;48.860;9.188;2022-08-03T04:34:55;21.20;92.50
31819;DHT22;18384;48.860;9.188;2022-08-03T04:37:41;21.20;92.40
31819;DHT22;18384;48.860;9.188;2022-08-03T04:40:11;21.20;92.60
31819;DHT22;18384;48.860;9.188;2022-08-03T04:42:39;21.20;92.60
31819;DHT22;18384;48.860;9.188;2022-08-03T04:45:10;21.30;92.60
31819;DHT22;18384;48.860;9.188;2022-08-03T04:47:38;21.30;92.50
31819;DHT22;18384;48.860;9.188;2022-08-03T04:50:05;21.30;92.50
31819;DHT22;18384;48.860;9.188;2022-08-03T04:52:33;21.30;92.40
31819;DHT22;18384;48.860;9.188;2022-08-03T04:54:59;21.40;92.40
31819;DHT22;18384;48.860;9.188;2022-08-03T04:57:25;21.40;92.40
31819;DHT22;18384;48.860;9.188;2022-08-03T04:59:52;21.30;92.50
31819;DHT22;18384;48.860;9.188;2022-08-03T05:02:20;21.30;92.60
31819;DHT22;18384;48.860;9.188;2022-08-03T05:04:46;21.30;92.70
31819;DHT22;18384;48.860;9.188;2022-08-03T05:07:13;21.30;92.50
31819;DHT22;18384;48.860;9.188;2022-08-03T05:09:39;21.50;92.40
31819;DHT22;18384;48.860;9.188;2022-08-03T05:12:06;21.40;92.60
31819;DHT22;18384;48.860;9.188;2022-08-03T05:14:33;21.60;92.40
31819;DHT22;18384;48.860;9.188;2022-08-03T05:17:03;21.70;92.20
31819;DHT22;18384;48.860;9.188;2022-08-03T05:19:29;21.80;92.30
31819;DHT22;18384;48.860;9.188;2022-08-03T05:21:55;21.80;92.00
31819;DHT22;18384;48.860;9.188;2022-08-03T05:24:21;21.80;92.40
31819;DHT22;18384;48.860;9.188;2022-08-03T05:26:48;22.00;92.00
31819;DHT22;18384;48.860;9.188;2022-08-03T05:29:14;22.00;91.90
31819;DHT22;18384;48.860;9.188;2022-08-03T05:31:40;22.00;91.90
31819;DHT22;18384;48.860;9.188;2022-08-03T05:34:06;22.10;91.80
31819;DHT22;18384;48.860;9.188;2022-08-03T05:36:32;22.00;92.00
31819;DHT22;18384;48.860;9.188;2022-08-03T05:38:58;22.10;91.80
31819;DHT22;18384;48.860;9.188;2022-08-03T05:41:24;22.30;91.70
31819;DHT22;18384;48.860;9.188;2022-08-03T05:43:52;22.60;91.20
31819;DHT22;18384;48.860;9.188;2022-08-03T05:46:19;22.70;90.90
31819;DHT22;18384;48.860;9.188;2022-08-03T05:48:49;22.90;91.00
31819;DHT22;18384;48.860;9.188;2022-08-03T05:51:15;22.80;90.40
31819;DHT22;18384;48.860;9.188;2022-08-03T05:53:42;22.80;90.60
31819;DHT22;18384;48.860;9.188;2022-08-03T05:56:09;22.80;90.80
31819;DHT22;18384;48.860;9.188;2022-08-03T05:58:35;23.00;90.60
31819;DHT22;18384;48.860;9.188;2022-08-03T06:01:02;23.00;90.80
31819;DHT22;18384;48.860;9.188;2022-08-03T06:03:28;23.10;90.50
31819;DHT22;18384;48.860;9.188;2022-08-03T06:05:54;23.10;90.50
31819;DHT22;18384;48.860;9.188;2022-08-03T06:08:21;23.20;90.20
31819;DHT22;18384;48.860;9.188;2022-08-03T06:10:48;23.30;90.20
31819;DHT22;18384;48.860;9.188;2022-08-03T06:13:15;23.30;90.30
31819;DHT22;18384;48.860;9.188;2022-08-03T06:15:41;23.40;90.10
31819;DHT22;18384;48.860;9.188;2022-08-03T06:18:12;23.40;89.80
31819;DHT22;18384;48.860;9.188;2022-08-03T06:20:38;23.50;88.70
31819;DHT22;18384;48.860;9.188;2022-08-03T06:23:04;23.70;88.60
31819;DHT22;18384;48.860;9.188;2022-08-03T06:25:30;23.80;88.70
31819;DHT22;18384;48.860;9.188;2022-08-03T06:27:57;23.90;87.70
31819;DHT22;18384;48.860;9.188;2022-08-03T06:30:24;23.90;88.30
31819;DHT22;18384;48.860;9.188;2022-08-03T06:32:50;24.00;87.90
31819;DHT22;18384;48.860;9.188;2022-08-03T06:35:16;24.10;87.00
31819;DHT22;18384;48.860;9.188;2022-08-03T06:37:46;24.20;87.20
31819;DHT22;18384;48.860;9.188;2022-08-03T06:40:22;24.20;87.00
31819;DHT22;18384;48.860;9.188;2022-08-03T06:42:59;24.20;87.00
31819;DHT22;18384;48.860;9.188;2022-08-03T06:45:27;24.20;86.80
31819;DHT22;18384;48.860;9.188;2022-08-03T06:48:04;24.10;86.80
31819;DHT22;18384;48.860;9.188;2022-08-03T06:50:39;24.20;87.30
31819;DHT22;18384;48.860;9.188;2022-08-03T06:53:08;24.20;86.80
31819;DHT22;18384;48.860;9.188;2022-08-03T06:55:34;24.30;86.90
31819;DHT22;18384;48.860;9.188;2022-08-03T06:58:00;24.40;86.30
31819;DHT22;18384;48.860;9.188;2022-08-03T07:00:26;24.40;86.20
31819;DHT22;18384;48.860;9.188;2022-08-03T07:02:53;24.40;86.20
31819;DHT22;18384;48.860;9.188;2022-08-03T07:05:19;24.50;86.00
31819;DHT22;18384;48.860;9.188;2022-08-03T07:07:45;24.50;85.30
31819;DHT22;18384;48.860;9.188;2022-08-03T07:10:12;24.60;85.20
31819;DHT22;18384;48.860;9.188;2022-08-03T07:12:38;24.60;85.70
31819;DHT22;18384;48.860;9.188;2022-08-03T07:15:06;24.70;85.60
31819;DHT22;18384;48.860;9.188;2022-08-03T07:17:34;24.80;85.10
31819;DHT22;18384;48.860;9.188;2022-08-03T07:20:03;24.80;84.50
31819;DHT22;18384;48.860;9.188;2022-08-03T07:22:32;24.90;84.80
31819;DHT22;18384;48.860;9.188;2022-08-03T07:24:58;25.00;84.40
31819;DHT22;18384;48.860;9.188;2022-08-03T07:27:25;25.00;84.80
31819;DHT22;18384;48.860;9.188;2022-08-03T07:29:53;25.00;84.20
31819;DHT22;18384;48.860;9.188;2022-08-03T07:32:19;25.10;83.90
31819;DHT22;18384;48.860;9.188;2022-08-03T07:34:46;25.20;84.00
31819;DHT22;18384;48.860;9.188;2022-08-03T07:37:12;25.20;83.50
31819;DHT22;18384;48.860;9.188;2022-08-03T07:39:38;25.30;83.90
31819;DHT22;18384;48.860;9.188;2022-08-03T07:42:04;25.50;83.20
31819;DHT22;18384;48.860;9.188;2022-08-03T07:44:30;25.50;82.10
31819;DHT22;18384;48.860;9.188;2022-08-03T07:46:56;25.60;81.80
31819;DHT22;18384;48.860;9.188;2022-08-03T07:49:22;25.60;81.30
31819;DHT22;18384;48.860;9.188;2022-08-03T07:51:48;25.70;80.70
31819;DHT22;18384;48.860;9.188;2022-08-03T07:54:32;25.70;81.00
31819;DHT22;18384;48.860;9.188;2022-08-03T07:56:58;25.80;81.10
31819;DHT22;18384;48.860;9.188;2022-08-03T07:59:25;25.90;80.90
31819;DHT22;18384;48.860;9.188;2022-08-03T08:01:50;26.00;80.40
31819;DHT22;18384;48.860;9.188;2022-08-03T08:04:18;26.00;79.30
31819;DHT22;18384;48.860;9.188;2022-08-03T08:06:44;26.00;78.90
31819;DHT22;18384;48.860;9.188;2022-08-03T08:09:11;26.10;79.40
31819;DHT22;18384;48.860;9.188;2022-08-03T08:11:38;26.20;78.60
31819;DHT22;18384;48.860;9.188;2022-08-03T08:14:04;26.20;78.50
31819;DHT22;18384;48.860;9.188;2022-08-03T08:16:32;26.20;78.30
31819;DHT22;18384;48.860;9.188;2022-08-03T08:18:58;26.30;77.80
31819;DHT22;18384;48.860;9.188;2022-08-03T08:21:24;26.40;77.70
31819;DHT22;18384;48.860;9.188;2022-08-03T08:23:50;26.50;77.90
31819;DHT22;18384;48.860;9.188;2022-08-03T08:26:16;26.60;77.50
31819;DHT22;18384;48.860;9.188;2022-08-03T08:28:42;26.70;77.30
31819;DHT22;18384;48.860;9.188;2022-08-03T08:31:08;26.80;76.80
31819;DHT22;18384;48.860;9.188;2022-08-03T08:33:35;26.80;75.40
31819;DHT22;18384;48.860;9.188;2022-08-03T08:36:01;26.90;74.10
31819;DHT22;18384;48.860;9.188;2022-08-03T08:38:27;27.00;74.30
31819;DHT22;18384;48.860;9.188;2022-08-03T08:40:56;27.10;74.40
31819;DHT22;18384;48.860;9.188;2022-08-03T08:43:23;27.10;72.60
31819;DHT22;18384;48.860;9.188;2022-08-03T08:45:49;27.10;73.50
31819;DHT22;18384;48.860;9.188;2022-08-03T08:48:23;27.20;72.80
31819;DHT22;18384;48.860;9.188;2022-08-03T08:50:54;27.30;71.60
31819;DHT22;18384;48.860;9.188;2022-08-03T08:53:25;27.40;71.40
31819;DHT22;18384;48.860;9.188;2022-08-03T08:55:58;27.50;71.50
31819;DHT22;18384;48.860;9.188;2022-08-03T08:58:29;27.40;72.30
31819;DHT22;18384;48.860;9.188;2022-08-03T09:00:59;27.40;72.10
31819;DHT22;18384;48.860;9.188;2022-08-03T09:03:25;27.50;70.10
31819;DHT22;18384;48.860;9.188;2022-08-03T09:05:51;27.60;70.00
31819;DHT22;18384;48.860;9.188;2022-08-03T09:08:18;27.70;69.10
31819;DHT22;18384;48.860;9.188;2022-08-03T09:10:44;27.70;68.90
31819;DHT22;18384;48.860;9.188;2022-08-03T09:13:10;27.80;67.70
31819;DHT22;18384;48.860;9.188;2022-08-03T09:15:36;27.90;68.00
31819;DHT22;18384;48.860;9.188;2022-08-03T09:18:03;27.90;68.10
31819;DHT22;18384;48.860;9.188;2022-08-03T09:20:32;28.10;67.80
31819;DHT22;18384;48.860;9.188;2022-08-03T09:23:05;28.10;67.50
31819;DHT22;18384;48.860;9.188;2022-08-03T09:25:37;28.00;67.40
31819;DHT22;18384;48.860;9.188;2022-08-03T09:28:25;28.10;67.60
31819;DHT22;18384;48.860;9.188;2022-08-03T09:30:59;28.10;65.60
31819;DHT22;18384;48.860;9.188;2022-08-03T09:33:25;28.20;66.00
31819;DHT22;18384;48.860;9.188;2022-08-03T09:35:51;28.20;65.90
31819;DHT22;18384;48.860;9.188;2022-08-03T09:38:22;28.30;65.70
31819;DHT22;18384;48.860;9.188;2022-08-03T09:40:51;28.40;65.70
31819;DHT22;18384;48.860;9.188;2022-08-03T09:43:19;28.50;65.30
31819;DHT22;18384;48.860;9.188;2022-08-03T09:45:45;28.50;64.70
31819;DHT22;18384;48.860;9.188;2022-08-03T09:48:23;28.60;65.50
31819;DHT22;18384;48.860;9.188;2022-08-03T09:50:52;28.60;64.20
31819;DHT22;18384;48.860;9.188;2022-08-03T09:53:20;28.60;65.30
31819;DHT22;18384;48.860;9.188;2022-08-03T09:56:05;28.60;65.70
31819;DHT22;18384;48.860;9.188;2022-08-03T09:58:31;28.70;65.50
31819;DHT22;18384;48.860;9.188;2022-08-03T10:01:00;28.70;62.30
31819;DHT22;18384;48.860;9.188;2022-08-03T10:03:32;28.60;64.40
31819;DHT22;18384;48.860;9.188;2022-08-03T10:06:18;28.80;65.10
31819;DHT22;18384;48.860;9.188;2022-08-03T10:08:45;28.80;64.40
31819;DHT22;18384;48.860;9.188;2022-08-03T10:11:11;28.90;63.00
31819;DHT22;18384;48.860;9.188;2022-08-03T10:13:39;28.90;63.60
31819;DHT22;18384;48.860;9.188;2022-08-03T10:16:05;28.80;62.00
31819;DHT22;18384;48.860;9.188;2022-08-03T10:18:32;28.80;63.20
31819;DHT22;18384;48.860;9.188;2022-08-03T10:21:02;28.90;64.50
31819;DHT22;18384;48.860;9.188;2022-08-03T10:23:33;29.00;64.20
31819;DHT22;18384;48.860;9.188;2022-08-03T10:26:02;29.10;64.00
31819;DHT22;18384;48.860;9.188;2022-08-03T10:28:35;29.20;63.70
31819;DHT22;18384;48.860;9.188;2022-08-03T10:31:04;29.20;63.20
31819;DHT22;18384;48.860;9.188;2022-08-03T10:33:36;29.20;63.10
31819;DHT22;18384;48.860;9.188;2022-08-03T10:36:06;29.30;62.00
31819;DHT22;18384;48.860;9.188;2022-08-03T10:38:37;29.20;62.90
31819;DHT22;18384;48.860;9.188;2022-08-03T10:41:12;29.20;63.10
31819;DHT22;18384;48.860;9.188;2022-08-03T10:47:04;29.40;63.30
31819;DHT22;18384;48.860;9.188;2022-08-03T10:49:31;29.50;62.50
31819;DHT22;18384;48.860;9.188;2022-08-03T10:51:58;29.50;61.60
31819;DHT22;18384;48.860;9.188;2022-08-03T11:03:10;29.70;62.90
31819;DHT22;18384;48.860;9.188;2022-08-03T11:05:41;29.70;62.70
31819;DHT22;18384;48.860;9.188;2022-08-03T11:08:31;29.80;61.30
31819;DHT22;18384;48.860;9.188;2022-08-03T11:17:10;29.70;61.60
31819;DHT22;18384;48.860;9.188;2022-08-03T11:19:45;29.70;62.30
31819;DHT22;18384;48.860;9.188;2022-08-03T11:22:14;29.70;62.20
31819;DHT22;18384;48.860;9.188;2022-08-03T11:25:02;29.70;60.30
31819;DHT22;18384;48.860;9.188;2022-08-03T11:27:30;29.60;60.90
31819;DHT22;18384;48.860;9.188;2022-08-03T11:30:43;29.70;62.70
31819;DHT22;18384;48.860;9.188;2022-08-03T11:33:09;29.80;61.90
31819;DHT22;18384;48.860;9.188;2022-08-03T11:36:00;29.90;61.20
31819;DHT22;18384;48.860;9.188;2022-08-03T11:38:27;29.90;60.10
31819;DHT22;18384;48.860;9.188;2022-08-03T11:40:53;29.90;61.70
31819;DHT22;18384;48.860;9.188;2022-08-03T11:44:38;30.00;61.30
31819;DHT22;18384;48.860;9.188;2022-08-03T11:47:05;29.90;61.20
31819;DHT22;18384;48.860;9.188;2022-08-03T11:49:31;30.00;60.40
31819;DHT22;18384;48.860;9.188;2022-08-03T11:51:57;30.00;61.20
31819;DHT22;18384;48.860;9.188;2022-08-03T11:54:23;30.00;60.10
31819;DHT22;18384;48.860;9.188;2022-08-03T11:56:50;30.10;59.40
31819;DHT22;18384;48.860;9.188;2022-08-03T11:59:16;30.10;58.70
31819;DHT22;18384;48.860;9.188;2022-08-03T12:01:42;30.10;58.60
31819;DHT22;18384;48.860;9.188;2022-08-03T12:04:10;30.10;58.20
31819;DHT22;18384;48.860;9.188;2022-08-03T12:06:36;30.20;58.00
31819;DHT22;18384;48.860;9.188;2022-08-03T12:09:21;30.10;57.70
31819;DHT22;18384;48.860;9.188;2022-08-03T12:11:48;30.10;57.80
31819;DHT22;18384;48.860;9.188;2022-08-03T12:14:19;30.10;58.30
31819;DHT22;18384;48.860;9.188;2022-08-03T12:16:48;30.10;58.40
31819;DHT22;18384;48.860;9.188;2022-08-03T12:19:15;30.10;57.80
31819;DHT22;18384;48.860;9.188;2022-08-03T12:21:48;30.00;57.50
31819;DHT22;18384;48.860;9.188;2022-08-03T12:24:15;30.00;58.50
31819;DHT22;18384;48.860;9.188;2022-08-03T12:26:50;30.10;58.10
31819;DHT22;18384;48.860;9.188;2022-08-03T12:29:20;30.10;57.90
31819;DHT22;18384;48.860;9.188;2022-08-03T12:31:47;30.10;57.00
31819;DHT22;18384;48.860;9.188;2022-08-03T12:34:14;30.10;57.30
31819;DHT22;18384;48.860;9.188;2022-08-03T12:36:52;30.10;57.60
31819;DHT22;18384;48.860;9.188;2022-08-03T12:39:25;30.10;58.40
31819;DHT22;18384;48.860;9.188;2022-08-03T12:41:55;30.10;57.70
31819;DHT22;18384;48.860;9.188;2022-08-03T12:44:33;30.20;57.60
31819;DHT22;18384;48.860;9.188;2022-08-03T12:47:02;30.30;57.40
31819;DHT22;18384;48.860;9.188;2022-08-03T12:49:51;30.30;57.90
31819;DHT22;18384;48.860;9.188;2022-08-03T12:52:19;30.40;57.80
31819;DHT22;18384;48.860;9.188;2022-08-03T12:54:57;30.50;57.50
31819;DHT22;18384;48.860;9.188;2022-08-03T12:57:25;30.50;57.80
31819;DHT22;18384;48.860;9.188;2022-08-03T12:59:53;30.50;57.70
31819;DHT22;18384;48.860;9.188;2022-08-03T13:02:21;30.50;58.80
31819;DHT22;18384;48.860;9.188;2022-08-03T13:04:50;30.50;59.50
31819;DHT22;18384;48.860;9.188;2022-08-03T13:07:18;30.60;58.30
31819;DHT22;18384;48.860;9.188;2022-08-03T13:09:49;30.60;57.80
31819;DHT22;18384;48.860;9.188;2022-08-03T13:12:22;30.50;56.60
31819;DHT22;18384;48.860;9.188;2022-08-03T13:14:51;30.60;57.30
31819;DHT22;18384;48.860;9.188;2022-08-03T13:17:20;30.50;56.20
31819;DHT22;18384;48.860;9.188;2022-08-03T13:19:47;30.50;56.60
31819;DHT22;18384;48.860;9.188;2022-08-03T13:22:19;30.60;57.20
31819;DHT22;18384;48.860;9.188;2022-08-03T13:24:50;30.60;57.10
31819;DHT22;18384;48.860;9.188;2022-08-03T13:27:18;30.60;56.40
31819;DHT22;18384;48.860;9.188;2022-08-03T13:29:44;30.70;57.00
31819;DHT22;18384;48.860;9.188;2022-08-03T13:32:10;30.70;56.50
31819;DHT22;18384;48.860;9.188;2022-08-03T13:34:37;30.70;56.00
31819;DHT22;18384;48.860;9.188;2022-08-03T13:37:04;30.60;55.50
31819;DHT22;18384;48.860;9.188;2022-08-03T13:39:30;30.60;55.10
31819;DHT22;18384;48.860;9.188;2022-08-03T13:41:56;30.70;56.80
31819;DHT22;18384;48.860;9.188;2022-08-03T13:44:24;30.70;57.40
31819;DHT22;18384;48.860;9.188;2022-08-03T13:46:50;30.70;56.80
31819;DHT22;18384;48.860;9.188;2022-08-03T13:49:16;30.80;56.90
31819;DHT22;18384;48.860;9.188;2022-08-03T13:51:42;30.90;56.80
31819;DHT22;18384;48.860;9.188;2022-08-03T13:54:08;30.90;56.50
31819;DHT22;18384;48.860;9.188;2022-08-03T13:56:34;30.90;56.00
31819;DHT22;18384;48.860;9.188;2022-08-03T13:59:00;30.90;56.50
31819;DHT22;18384;48.860;9.188;2022-08-03T14:01:27;30.90;56.90
31819;DHT22;18384;48.860;9.188;2022-08-03T14:03:53;31.00;56.20
31819;DHT22;18384;48.860;9.188;2022-08-03T14:06:21;31.00;56.50
31819;DHT22;18384;48.860;9.188;2022-08-03T14:08:48;31.00;55.40
31819;DHT22;18384;48.860;9.188;2022-08-03T14:11:15;31.00;54.80
31819;DHT22;18384;48.860;9.188;2022-08-03T14:13:42;30.90;54.20
31819;DHT22;18384;48.860;9.188;2022-08-03T14:16:09;30.90;55.20
31819;DHT22;18384;48.860;9.188;2022-08-03T14:18:35;30.90;54.60
31819;DHT22;18384;48.860;9.188;2022-08-03T14:21:03;31.00;55.10
31819;DHT22;18384;48.860;9.188;2022-08-03T14:23:30;31.00;55.50
31819;DHT22;18384;48.860;9.188;2022-08-03T14:25:57;31.00;55.30
31819;DHT22;18384;48.860;9.188;2022-08-03T14:28:23;31.00;55.40
31819;DHT22;18384;48.860;9.188;2022-08-03T14:30:51;31.00;54.70
31819;DHT22;18384;48.860;9.188;2022-08-03T14:33:19;31.00;55.10
31819;DHT22;18384;48.860;9.188;2022-08-03T14:35:45;31.00;55.00
31819;DHT22;18384;48.860;9.188;2022-08-03T14:38:11;31.00;55.50
31819;DHT22;18384;48.860;9.188;2022-08-03T14:40:37;31.00;55.10
31819;DHT22;18384;48.860;9.188;2022-08-03T14:43:03;31.10;54.60
31819;DHT22;18384;48.860;9.188;2022-08-03T14:45:30;31.10;55.00
31819;DHT22;18384;48.860;9.188;2022-08-03T14:47:56;31.10;54.80
31819;DHT22;18384;48.860;9.188;2022-08-03T14:50:25;31.10;54.20
31819;DHT22;18384;48.860;9.188;2022-08-03T14:52:53;31.20;53.60
31819;DHT22;18384;48.860;9.188;2022-08-03T14:55:19;31.20;53.10
31819;DHT22;18384;48.860;9.188;2022-08-03T14:57:45;31.20;52.90
31819;DHT22;18384;48.860;9.188;2022-08-03T15:00:12;31.20;52.50
31819;DHT22;18384;48.860;9.188;2022-08-03T15:02:38;31.30;52.40
31819;DHT22;18384;48.860;9.188;2022-08-03T15:05:07;31.30;52.80
31819;DHT22;18384;48.860;9.188;2022-08-03T15:07:33;31.30;52.30
31819;DHT22;18384;48.860;9.188;2022-08-03T15:09:59;31.30;53.20
31819;DHT22;18384;48.860;9.188;2022-08-03T15:12:25;31.30;52.40
31819;DHT22;18384;48.860;9.188;2022-08-03T15:14:51;31.30;52.70
31819;DHT22;18384;48.860;9.188;2022-08-03T15:17:17;31.30;53.30
31819;DHT22;18384;48.860;9.188;2022-08-03T15:19:44;31.30;52.70
31819;DHT22;18384;48.860;9.188;2022-08-03T15:22:10;31.30;52.40
31819;DHT22;18384;48.860;9.188;2022-08-03T15:24:38;31.30;52.30
31819;DHT22;18384;48.860;9.188;2022-08-03T15:27:04;31.30;51.70
31819;DHT22;18384;48.860;9.188;2022-08-03T15:29:31;31.20;52.00
31819;DHT22;18384;48.860;9.188;2022-08-03T15:31:57;31.20;52.40
31819;DHT22;18384;48.860;9.188;2022-08-03T15:34:23;31.20;53.20
31819;DHT22;18384;48.860;9.188;2022-08-03T15:36:49;31.20;53.40
31819;DHT22;18384;48.860;9.188;2022-08-03T15:39:15;31.20;53.40
31819;DHT22;18384;48.860;9.188;2022-08-03T15:41:42;31.10;53.00
31819;DHT22;18384;48.860;9.188;2022-08-03T15:44:08;31.20;53.30
31819;DHT22;18384;48.860;9.188;2022-08-03T15:46:34;31.20;53.10
31819;DHT22;18384;48.860;9.188;2022-08-03T15:49:00;31.10;53.40
31819;DHT22;18384;48.860;9.188;2022-08-03T15:51:26;31.10;53.50
31819;DHT22;18384;48.860;9.188;2022-08-03T15:53:52;31.20;53.80
31819;DHT22;18384;48.860;9.188;2022-08-03T15:56:18;31.20;54.30
31819;DHT22;18384;48.860;9.188;2022-08-03T15:58:45;31.20;53.90
31819;DHT22;18384;48.860;9.188;2022-08-03T16:01:11;31.10;54.20
31819;DHT22;18384;48.860;9.188;2022-08-03T16:03:37;31.10;53.80